Time;durP1;ratioP1;P1;durP2;ratioP2;P2;SDS_P1;SDS_P2;PMS_P1;PMS_P2;Temp;Humidity;BMP_temperature;BMP_pressure;BME280_temperature;BME280_humidity;BME280_pressure;Samples;Min_cycle;Max_cycle;Signal;HPM_P1;HPM_P2
2021/01/16 00:00:35;;;;;;;66.65;17.65;;;;;;;-3.64;87.70;101242.88;1673017;85;21191;-72
2021/01/16 00:03:10;;;;;;;40.65;13.68;;;;;;;-3.64;87.70;101243.73;1672748;85;21648;-72
2021/01/16 00:05:37;;;;;;;49.42;18.37;;;;;;;-3.63;87.72;101240.22;1671513;84;21407;-72
2021/01/16 00:08:10;;;;;;;65.08;22.82;;;;;;;-3.65;87.70;101245.93;1671498;85;21200;-72
2021/01/16 00:10:42;;;;;;;27.13;10.78;;;;;;;-3.63;87.72;101237.62;1670755;85;22425;-72
2021/01/16 00:13:11;;;;;;;39.00;12.73;;;;;;;-3.61;87.72;101238.39;1671745;85;21215;-72
2021/01/16 00:15:37;;;;;;;36.20;11.93;;;;;;;-3.59;87.73;101236.56;1677057;84;21293;-72
2021/01/16 00:18:09;;;;;;;20.70;8.55;;;;;;;-3.58;87.73;101230.45;1701451;84;21278;-72
2021/01/16 00:20:37;;;;;;;27.90;10.85;;;;;;;-3.57;87.74;101237.81;1701373;84;21184;-72
2021/01/16 00:23:06;;;;;;;22.87;9.95;;;;;;;-3.58;87.74;101243.48;1701374;84;21160;-71
2021/01/16 00:25:33;;;;;;;26.65;12.03;;;;;;;-3.58;87.75;101243.48;1700726;83;21106;-71
2021/01/16 00:27:59;;;;;;;18.02;7.97;;;;;;;-3.56;87.76;101242.98;1700913;84;21203;-71
2021/01/16 00:30:31;;;;;;;21.12;9.43;;;;;;;-3.54;87.76;101241.16;1701336;82;21195;-71
2021/01/16 00:32:58;;;;;;;22.45;9.15;;;;;;;-3.54;87.76;101237.24;1701333;84;21164;-71
2021/01/16 00:35:26;;;;;;;21.42;9.50;;;;;;;-3.54;87.77;101250.72;1701377;84;21160;-70
2021/01/16 00:37:53;;;;;;;17.65;9.08;;;;;;;-3.54;87.77;101241.59;1701427;84;21160;-71
2021/01/16 00:40:22;;;;;;;14.87;7.58;;;;;;;-3.54;87.79;101247.66;1701277;83;22151;-71
2021/01/16 00:42:55;;;;;;;19.50;8.05;;;;;;;-3.54;87.80;101242.45;1701469;83;21663;-71
2021/01/16 00:45:22;;;;;;;14.07;7.08;;;;;;;-3.55;87.79;101247.72;1692628;84;21655;-71
2021/01/16 00:47:48;;;;;;;19.45;10.58;;;;;;;-3.57;87.79;101254.30;1701260;84;21156;-72
2021/01/16 00:50:18;;;;;;;17.20;7.90;;;;;;;-3.58;87.77;101252.60;1700676;84;21180;-72
2021/01/16 00:52:55;;;;;;;;;;;;;;;-3.59;87.79;101250.89;1703508;84;22227;-71
2021/01/16 00:55:22;;;;;;;26.87;10.93;;;;;;;-3.59;87.79;101248.77;1701033;84;20291;-72
2021/01/16 00:57:49;;;;;;;26.05;9.25;;;;;;;-3.61;87.77;101247.52;1700917;84;21125;-71
2021/01/16 01:00:16;;;;;;;16.62;7.92;;;;;;;-3.61;87.77;101244.91;1701440;83;21132;-71
2021/01/16 01:02:43;;;;;;;22.20;7.65;;;;;;;-3.62;87.78;101247.11;1676765;84;21176;-72
2021/01/16 01:05:13;;;;;;;17.70;8.35;;;;;;;-3.61;87.77;101248.81;1673626;84;22102;-71
2021/01/16 01:07:39;;;;;;;19.25;8.20;;;;;;;-3.62;87.79;101243.20;1689712;82;21302;-71
2021/01/16 01:10:07;;;;;;;21.52;10.13;;;;;;;-3.63;87.77;101236.77;1701299;84;21204;-71
2021/01/16 01:12:35;;;;;;;23.18;10.53;;;;;;;-3.63;87.77;101242.83;1701375;84;21156;-71
2021/01/16 01:15:02;;;;;;;24.02;10.68;;;;;;;-3.62;87.78;101239.73;1700988;84;21171;-71
2021/01/16 01:17:29;;;;;;;24.67;10.30;;;;;;;-3.63;87.79;101245.44;1701280;84;22116;-70
2021/01/16 01:19:56;;;;;;;23.92;9.75;;;;;;;-3.62;87.79;101245.80;1700617;84;21184;-71
2021/01/16 01:22:22;;;;;;;16.12;8.18;;;;;;;-3.61;87.78;101235.78;1701258;84;21256;-70
2021/01/16 01:24:49;;;;;;;16.75;8.10;;;;;;;-3.58;87.80;101242.63;1678870;84;21187;-70
2021/01/16 01:27:15;;;;;;;16.80;8.50;;;;;;;-3.61;87.82;101243.60;1700986;84;21691;-71
2021/01/16 01:29:41;;;;;;;19.82;10.13;;;;;;;-3.63;87.83;101248.04;1701371;83;22070;-70
2021/01/16 01:32:08;;;;;;;46.25;19.45;;;;;;;-3.63;87.83;101247.19;1700762;84;21188;-70
2021/01/16 01:34:34;;;;;;;38.83;13.20;;;;;;;-3.65;87.82;101248.98;1701211;84;21152;-70
2021/01/16 01:37:00;;;;;;;27.42;12.18;;;;;;;-3.66;87.82;101245.52;1679049;84;21227;-71
2021/01/16 01:39:27;;;;;;;27.07;11.48;;;;;;;-3.65;87.81;101239.41;1672899;84;21144;-70
2021/01/16 01:41:53;;;;;;;33.55;12.98;;;;;;;-3.65;87.82;101235.50;1672060;85;21281;-70
2021/01/16 01:44:20;;;;;;;25.75;11.03;;;;;;;-3.66;87.83;101231.19;1686918;82;21259;-70
2021/01/16 01:46:46;;;;;;;34.18;12.23;;;;;;;-3.66;87.83;101239.48;1697664;82;21658;-71
2021/01/16 01:49:12;;;;;;;26.17;11.22;;;;;;;-3.68;87.84;101238.23;1694557;83;21228;-71
2021/01/16 01:51:39;;;;;;;23.45;8.13;;;;;;;-3.69;87.86;101235.67;1687472;84;21212;-71
2021/01/16 01:54:05;;;;;;;21.85;8.80;;;;;;;-3.70;87.84;101240.52;1700171;84;21574;-71
2021/01/16 01:56:31;;;;;;;17.77;8.10;;;;;;;-3.70;87.84;101236.60;1701323;84;21228;-70
2021/01/16 01:58:59;;;;;;;16.52;7.72;;;;;;;-3.72;87.84;101235.80;1700578;84;21143;-71
2021/01/16 02:01:28;;;;;;;17.52;7.85;;;;;;;-3.74;87.84;101239.78;1700992;84;21295;-71
2021/01/16 02:03:56;;;;;;;14.17;7.43;;;;;;;-3.76;87.84;101238.97;1690989;83;21586;-71
2021/01/16 02:06:22;;;;;;;15.43;8.60;;;;;;;-3.77;87.84;101239.91;1672830;85;22129;-71
2021/01/16 02:08:49;;;;;;;18.55;8.18;;;;;;;-3.77;87.84;101242.51;1680412;84;21199;-71
2021/01/16 02:11:16;;;;;;;15.25;6.72;;;;;;;-3.76;87.84;101238.97;1701160;84;21183;-71
2021/01/16 02:13:42;;;;;;;13.45;7.10;;;;;;;-3.74;87.85;101238.48;1681291;84;21224;-71
2021/01/16 02:16:11;;;;;;;14.10;6.28;;;;;;;-3.74;87.82;101240.23;1680605;84;21127;-71
2021/01/16 02:18:42;;;;;;;21.25;9.40;;;;;;;-3.76;87.84;101233.77;1706725;84;21871;-71
2021/01/16 02:21:09;;;;;;;18.37;8.25;;;;;;;-3.78;87.85;101236.89;1706779;84;21183;-71
2021/01/16 02:24:10;;;;;;;16.62;7.67;;;;;;;-3.78;87.84;101247.77;1706529;84;21174;-71
2021/01/16 02:26:48;;;;;;;15.98;7.08;;;;;;;-3.80;87.82;101242.59;1678518;84;21671;-71
2021/01/16 02:29:14;;;;;;;14.25;6.87;;;;;;;-3.80;87.84;101244.38;1706399;84;21635;-71
2021/01/16 02:31:44;;;;;;;14.20;7.25;;;;;;;-3.82;87.85;101245.73;1706515;84;21316;-70
2021/01/16 02:34:16;;;;;;;13.13;6.62;;;;;;;-3.84;87.86;101239.74;1707023;84;21166;-71
2021/01/16 02:37:03;;;;;;;14.50;7.25;;;;;;;-3.83;87.86;101244.02;1706508;84;21593;-71
2021/01/16 02:39:43;;;;;;;11.18;6.28;;;;;;;-3.85;87.85;101235.88;1705409;84;21235;-70
2021/01/16 02:42:18;;;;;;;13.62;7.15;;;;;;;-3.85;87.85;101239.34;1680683;84;21172;-70
2021/01/16 02:44:59;;;;;;;12.43;6.20;;;;;;;-3.86;87.87;101241.54;1702787;84;23075;-70
2021/01/16 02:47:47;;;;;;;15.00;8.33;;;;;;;-3.87;87.85;101238.53;1686617;83;21208;-71
2021/01/16 02:50:14;;;;;;;14.45;7.12;;;;;;;-3.88;87.85;101242.06;1716404;82;21569;-71
2021/01/16 02:52:45;;;;;;;20.30;10.45;;;;;;;-3.88;87.85;101243.37;1654670;84;21139;-71
2021/01/16 02:55:12;;;;;;;16.35;6.92;;;;;;;-3.89;87.86;101242.96;1703226;84;21179;-70
2021/01/16 02:57:39;;;;;;;15.72;7.47;;;;;;;-3.93;87.86;101245.73;1703198;84;21168;-70
2021/01/16 03:00:10;;;;;;;19.12;8.18;;;;;;;-3.95;87.90;101243.20;1703039;84;21147;-71
2021/01/16 03:02:37;;;;;;;24.20;8.25;;;;;;;-3.94;87.89;101252.69;1706008;83;21577;-71
2021/01/16 03:05:05;;;;;;;15.40;7.08;;;;;;;-3.94;87.88;101241.45;1720555;83;21184;-70
2021/01/16 03:07:32;;;;;;;15.03;6.47;;;;;;;-3.94;87.88;101251.88;1720184;82;21152;-71
2021/01/16 03:10:02;;;;;;;11.22;6.20;;;;;;;-3.95;87.89;101247.11;1720382;82;22064;-71
2021/01/16 03:12:28;;;;;;;19.42;7.28;;;;;;;-3.96;87.89;101244.09;1686418;83;21199;-71
2021/01/16 03:14:56;;;;;;;17.55;6.10;;;;;;;-3.97;87.90;101248.05;1703133;84;21219;-70
2021/01/16 03:17:28;;;;;;;17.05;6.28;;;;;;;-3.97;87.89;101251.95;1703207;84;21198;-71
2021/01/16 03:19:55;;;;;;;13.38;5.42;;;;;;;-3.99;87.90;101244.22;1701888;84;21181;-70
2021/01/16 03:22:24;;;;;;;16.90;6.53;;;;;;;-4.03;87.89;101251.75;1703245;84;22215;-70
2021/01/16 03:24:56;;;;;;;12.35;6.12;;;;;;;-4.06;87.89;101247.95;1714336;82;21175;-70
2021/01/16 03:27:23;;;;;;;14.28;6.65;;;;;;;-4.07;87.88;101247.10;1720524;82;21176;-70
2021/01/16 03:29:49;;;;;;;23.60;8.95;;;;;;;-4.09;87.87;101253.28;1720599;83;21183;-70
2021/01/16 03:32:16;;;;;;;19.98;7.92;;;;;;;-4.09;87.88;101248.08;1720738;82;21243;-70
2021/01/16 03:34:43;;;;;;;18.57;7.03;;;;;;;-4.06;87.87;101250.56;1720643;83;22146;-70
2021/01/16 03:37:10;;;;;;;13.30;5.42;;;;;;;-4.08;87.87;101244.55;1719380;82;21163;-70
2021/01/16 03:39:37;;;;;;;13.60;6.67;;;;;;;-4.09;87.86;101248.08;1713177;83;21219;-70
2021/01/16 03:42:05;;;;;;;16.73;6.10;;;;;;;-4.11;87.87;101249.87;1703038;83;21144;-70
2021/01/16 03:44:31;;;;;;;16.57;6.53;;;;;;;-4.12;87.84;101250.80;1690701;83;21639;-70
2021/01/16 03:46:57;;;;;;;11.03;5.65;;;;;;;-4.13;87.85;101253.00;1677569;85;22252;-70
2021/01/16 03:49:24;;;;;;;9.53;5.78;;;;;;;-4.15;87.84;101243.92;1677657;85;21178;-70
2021/01/16 03:51:50;;;;;;;10.50;5.28;;;;;;;-4.18;87.82;101244.05;1677686;85;21209;-70
2021/01/16 03:54:16;;;;;;;9.58;5.00;;;;;;;-4.19;87.80;101246.72;1677799;84;21185;-70
2021/01/16 03:56:43;;;;;;;12.35;6.40;;;;;;;-4.20;87.79;101245.86;1677617;84;21220;-70
2021/01/16 03:59:09;;;;;;;9.33;5.22;;;;;;;-4.19;87.79;101244.97;1677833;84;21210;-70
2021/01/16 04:01:35;;;;;;;10.65;5.92;;;;;;;-4.17;87.78;101250.10;1677716;84;21183;-70
2021/01/16 04:04:02;;;;;;;11.33;5.78;;;;;;;-4.17;87.76;101252.70;1677687;84;21196;-70
2021/01/16 04:06:28;;;;;;;22.32;9.40;;;;;;;-4.21;87.76;101251.11;1677576;85;21279;-70
2021/01/16 04:08:55;;;;;;;64.82;28.30;;;;;;;-4.25;87.75;101250.37;1677634;84;21168;-70
2021/01/16 04:11:21;;;;;;;15.18;6.53;;;;;;;-4.26;87.76;101256.95;1677756;85;21222;-70
2021/01/16 04:13:48;;;;;;;21.42;8.38;;;;;;;-4.29;87.76;101257.08;1677700;84;21159;-71
2021/01/16 04:16:14;;;;;;;17.73;6.83;;;;;;;-4.31;87.75;101253.21;1677597;85;21126;-70
2021/01/16 04:18:40;;;;;;;14.28;6.37;;;;;;;-4.36;87.75;101244.70;1677815;85;21234;-71
2021/01/16 04:21:07;;;;;;;15.75;6.42;;;;;;;-4.38;87.75;101255.64;1677568;85;21142;-70
2021/01/16 04:23:33;;;;;;;16.15;5.78;;;;;;;-4.42;87.73;101246.23;1677626;85;21284;-70
2021/01/16 04:25:59;;;;;;;10.48;5.70;;;;;;;-4.45;87.72;101247.64;1677413;85;21206;-70
2021/01/16 04:28:26;;;;;;;15.03;6.92;;;;;;;-4.45;87.71;101244.19;1677693;84;21173;-70
2021/01/16 04:30:52;;;;;;;14.00;6.12;;;;;;;-4.47;87.71;101240.80;1677698;85;21181;-70
2021/01/16 04:33:19;;;;;;;18.32;8.95;;;;;;;-4.48;87.71;101242.55;1677671;84;21238;-70
2021/01/16 04:35:45;;;;;;;11.05;5.78;;;;;;;-4.48;87.70;101244.30;1677561;85;22624;-70
2021/01/16 04:38:12;;;;;;;11.28;6.03;;;;;;;-4.48;87.70;101241.25;1677437;85;21219;-70
2021/01/16 04:40:38;;;;;;;16.52;6.40;;;;;;;-4.51;87.70;101231.41;1677741;85;21143;-70
2021/01/16 04:43:05;;;;;;;11.28;5.70;;;;;;;-4.54;87.70;101227.98;1677371;85;21147;-70
2021/01/16 04:45:32;;;;;;;13.98;6.65;;;;;;;-4.56;87.69;101232.41;1677767;83;21177;-70
2021/01/16 04:48:00;;;;;;;16.37;5.58;;;;;;;-4.61;87.68;101234.31;1677764;85;22133;-70
2021/01/16 04:50:35;;;;;;;10.30;4.78;;;;;;;-4.62;87.67;101235.23;1677565;85;21179;-70
2021/01/16 04:53:04;;;;;;;14.18;4.58;;;;;;;-4.65;87.64;101232.75;1677804;85;21210;-70
2021/01/16 04:55:32;;;;;;;12.80;5.25;;;;;;;-4.68;87.64;101233.30;1677705;85;21243;-70
2021/01/16 04:58:07;;;;;;;12.25;4.87;;;;;;;-4.70;87.62;101232.49;1677694;85;21140;-70
2021/01/16 05:00:37;;;;;;;11.38;6.12;;;;;;;-4.71;87.61;101237.28;1677128;85;21345;-70
2021/01/16 05:03:11;;;;;;;7.45;4.15;;;;;;;-4.72;87.61;101233.01;1676853;85;21243;-70
2021/01/16 05:05:40;;;;;;;19.98;9.35;;;;;;;-4.74;87.60;101235.65;1677659;85;21145;-70
2021/01/16 05:08:07;;;;;;;16.90;6.60;;;;;;;-4.74;87.61;101236.09;1677837;85;21150;-70
2021/01/16 05:10:42;;;;;;;12.65;5.65;;;;;;;-4.75;87.58;101240.92;1677769;84;21174;-70
2021/01/16 05:13:18;;;;;;;13.30;6.15;;;;;;;-4.74;87.57;101241.30;1677735;85;21253;-69
2021/01/16 05:15:45;;;;;;;11.65;5.00;;;;;;;-4.77;87.57;101239.66;1677596;85;21202;-70
2021/01/16 05:18:16;;;;;;;15.88;5.75;;;;;;;-4.79;87.55;101238.88;1677581;85;21208;-70
2021/01/16 05:20:43;;;;;;;10.70;5.40;;;;;;;-4.82;87.53;101236.83;1677626;85;21205;-70
2021/01/16 05:25:54;;;;;;;12.25;5.33;;;;;;;-4.79;87.52;101232.38;1814963;77;28243;-70
2021/01/16 05:28:24;;;;;;;11.60;4.92;;;;;;;-4.85;87.49;101237.77;1787817;79;21593;-70
2021/01/16 05:31:00;;;;;;;12.98;5.83;;;;;;;-4.88;87.48;101235.27;1787897;80;21272;-71
2021/01/16 05:33:31;;;;;;;10.93;5.28;;;;;;;-4.88;87.45;101240.47;1775181;80;21198;-70
2021/01/16 05:36:00;;;;;;;8.70;4.55;;;;;;;-4.90;87.45;101234.48;1779471;79;21119;-70
2021/01/16 05:38:41;;;;;;;11.18;4.87;;;;;;;-4.91;87.43;101232.78;1778219;80;21144;-71
2021/01/16 05:41:13;;;;;;;10.48;5.00;;;;;;;-4.94;87.41;101226.39;1756613;81;21544;-71
2021/01/16 05:43:42;;;;;;;9.90;4.85;;;;;;;-4.97;87.43;101217.39;1763416;80;21187;-70
2021/01/16 05:46:12;;;;;;;14.93;5.45;;;;;;;-5.01;87.41;101209.30;1787716;80;21134;-70
2021/01/16 05:48:38;;;;;;;9.80;4.53;;;;;;;-5.04;87.38;101219.80;1787840;80;21127;-70
2021/01/16 05:51:05;;;;;;;8.98;4.25;;;;;;;-5.07;87.38;101218.61;1787753;80;21131;-70
2021/01/16 05:53:31;;;;;;;8.35;4.08;;;;;;;-5.11;87.36;101213.11;1787617;80;21147;-70
2021/01/16 05:55:59;;;;;;;8.18;4.03;;;;;;;-5.12;87.33;101223.09;1787813;79;21206;-71
2021/01/16 05:58:34;;;;;;;8.73;4.33;;;;;;;-5.16;87.31;101220.20;1785558;80;21191;-71
2021/01/16 06:01:07;;;;;;;8.00;3.65;;;;;;;-5.17;87.30;101219.82;1787553;79;21107;-71
2021/01/16 06:03:36;;;;;;;18.20;9.70;;;;;;;-5.18;87.29;101227.21;1787682;80;21600;-70
2021/01/16 06:06:05;;;;;;;;;;;;;;;-5.20;87.25;101222.49;1789619;79;21140;-70
2021/01/16 06:08:31;;;;;;;37.42;14.68;;;;;;;-5.23;87.26;101220.85;1734486;80;22031;-70
2021/01/16 06:10:57;;;;;;;41.58;17.32;;;;;;;-5.27;87.24;101219.25;1737364;81;21164;-70
2021/01/16 06:13:24;;;;;;;22.80;8.90;;;;;;;-5.31;87.22;101224.62;1692546;83;21127;-70
2021/01/16 06:15:53;;;;;;;17.17;7.28;;;;;;;-5.34;87.17;101222.09;1702881;84;21645;-70
2021/01/16 06:18:33;;;;;;;14.87;5.90;;;;;;;-5.38;87.18;101212.72;1703022;83;21148;-70
2021/01/16 06:21:00;;;;;;;15.32;5.67;;;;;;;-5.41;87.17;101208.45;1702446;84;21207;-70
2021/01/16 06:23:26;;;;;;;7.55;4.25;;;;;;;-5.48;87.11;101203.05;1702749;84;21191;-70
2021/01/16 06:25:55;;;;;;;10.18;5.62;;;;;;;-5.54;87.11;101199.36;1674121;83;21663;-70
2021/01/16 06:28:25;;;;;;;11.85;5.40;;;;;;;-5.58;87.08;101208.14;1725799;83;21199;-70
2021/01/16 06:30:58;;;;;;;10.88;4.60;;;;;;;-5.66;87.08;101204.48;1727249;83;21172;-70
2021/01/16 06:33:27;;;;;;;12.95;5.40;;;;;;;-5.71;87.04;101210.29;1727024;83;22272;-70
2021/01/16 06:36:05;;;;;;;16.82;7.87;;;;;;;-5.75;87.04;101213.88;1750375;81;21156;-71
2021/01/16 06:38:34;;;;;;;16.32;7.80;;;;;;;-5.81;87.02;101217.97;1757241;81;21222;-71
2021/01/16 06:41:15;;;;;;;13.38;7.45;;;;;;;-5.86;87.00;101226.36;1758170;81;21132;-70
2021/01/16 06:43:44;;;;;;;18.57;9.15;;;;;;;-5.87;86.98;101218.61;1757292;81;21219;-70
2021/01/16 06:46:13;;;;;;;22.27;8.73;;;;;;;-5.91;86.95;101219.15;1751564;81;21220;-70
2021/01/16 06:48:47;;;;;;;29.70;10.82;;;;;;;-5.93;86.93;101213.16;1742111;81;21589;-70
2021/01/16 06:51:24;;;;;;;22.42;8.38;;;;;;;-5.93;86.92;101217.50;1728252;81;21207;-70
2021/01/16 06:53:50;;;;;;;13.05;6.83;;;;;;;-5.93;86.90;101219.66;1729223;81;21163;-71
2021/01/16 06:56:26;;;;;;;12.88;5.60;;;;;;;-5.93;86.87;101214.46;1740425;81;21586;-70
2021/01/16 06:58:54;;;;;;;11.40;5.75;;;;;;;-5.91;86.86;101218.33;1748863;81;21176;-70
2021/01/16 07:01:30;;;;;;;16.17;6.37;;;;;;;-5.94;86.84;101208.86;1749861;81;21164;-71
2021/01/16 07:03:59;;;;;;;67.17;17.65;;;;;;;-5.97;86.81;101207.66;1728622;81;23094;-70
2021/01/16 07:06:26;;;;;;;30.92;10.05;;;;;;;-5.98;86.79;101212.44;1728093;83;21714;-70
2021/01/16 07:08:52;;;;;;;91.92;27.82;;;;;;;-5.97;86.78;101215.45;1727858;83;21167;-70
2021/01/16 07:11:19;;;;;;;68.45;23.90;;;;;;;-5.97;86.74;101214.59;1727993;83;21206;-70
2021/01/16 07:13:45;;;;;;;68.45;22.77;;;;;;;-5.98;86.74;101213.73;1727422;83;22267;-70
2021/01/16 07:16:12;;;;;;;36.88;13.22;;;;;;;-5.98;86.72;101218.92;1728063;82;21624;-70
2021/01/16 07:18:41;;;;;;;18.17;8.35;;;;;;;-5.97;86.71;101217.19;1727718;83;21148;-71
2021/01/16 07:21:09;;;;;;;33.25;15.03;;;;;;;-5.95;86.68;101220.61;1727674;83;21160;-70
2021/01/16 07:23:35;;;;;;;37.90;16.40;;;;;;;-5.91;86.68;101214.43;1727775;83;22615;-70
2021/01/16 07:26:02;;;;;;;20.32;8.50;;;;;;;-5.89;86.67;101216.52;1725796;82;21184;-70
2021/01/16 07:28:29;;;;;;;19.42;9.05;;;;;;;-5.87;86.66;101211.67;1731519;82;21152;-70
2021/01/16 07:30:56;;;;;;;29.77;11.22;;;;;;;-5.86;86.65;101214.67;1729409;82;21565;-70
2021/01/16 07:33:24;;;;;;;31.73;13.32;;;;;;;-5.85;86.64;101215.50;1731639;82;21165;-70
2021/01/16 07:35:51;;;;;;;37.15;18.55;;;;;;;-5.86;86.63;101206.89;1675154;82;21281;-70
2021/01/16 07:38:18;;;;;;;46.58;20.20;;;;;;;-5.80;86.59;101202.77;1727535;81;21132;-71
2021/01/16 07:40:47;;;;;;;53.10;24.12;;;;;;;-5.67;86.54;101204.11;1725363;82;21582;-70
2021/01/16 07:43:44;;;;;;;63.73;32.55;;;;;;;-5.44;86.47;101194.70;1719235;82;21172;-70
2021/01/16 07:46:11;;;;;;;52.00;28.32;;;;;;;-5.37;86.40;101200.11;1714822;82;21779;-70
2021/01/16 07:48:53;;;;;;;41.53;18.87;;;;;;;-5.46;86.42;101194.78;1722511;82;21251;-71
2021/01/16 07:51:19;;;;;;;47.08;21.68;;;;;;;-5.50;86.45;101197.52;1719124;82;21223;-70
2021/01/16 07:53:45;;;;;;;77.25;30.12;;;;;;;-5.48;86.49;101197.00;1715754;82;21164;-70
2021/01/16 07:56:21;;;;;;;49.50;19.57;;;;;;;-5.46;86.50;101199.12;1714487;82;21160;-70
2021/01/16 07:59:12;;;;;;;44.25;17.55;;;;;;;-5.45;86.50;101189.13;1727349;81;21153;-70
2021/01/16 08:02:17;;;;;;;94.72;31.60;;;;;;;-5.41;86.51;101184.21;1701887;81;22076;-71
2021/01/16 08:05:04;;;;;;;170.40;47.90;;;;;;;-5.37;86.50;101177.57;1712626;82;21192;-70
2021/01/16 08:08:11;;;;;;;123.92;36.98;;;;;;;-5.33;86.50;101174.42;1725793;82;21172;-71
2021/01/16 08:10:38;;;;;;;64.20;24.05;;;;;;;-5.29;86.50;101176.02;1706108;82;21541;-70
2021/01/16 08:13:08;;;;;;;58.90;21.42;;;;;;;-5.25;86.52;101165.92;1684790;82;21212;-70
2021/01/16 08:15:41;;;;;;;63.40;22.13;;;;;;;-5.20;86.48;101166.16;1719963;82;21213;-70
2021/01/16 08:18:15;;;;;;;58.63;20.85;;;;;;;-5.14;86.48;101158.62;1723416;82;21184;-70
2021/01/16 08:20:41;;;;;;;82.85;26.23;;;;;;;-5.10;86.46;101161.04;1693473;82;21641;-70
2021/01/16 08:23:07;;;;;;;64.42;22.37;;;;;;;-5.07;86.44;101154.91;1728881;82;21127;-70
2021/01/16 08:25:34;;;;;;;77.00;24.75;;;;;;;-5.02;86.44;101165.98;1670368;82;21199;-70
2021/01/16 08:28:04;;;;;;;71.82;21.45;;;;;;;-4.96;86.43;101164.46;1715648;82;21156;-70
2021/01/16 08:30:33;;;;;;;61.23;20.60;;;;;;;-4.87;86.42;101160.70;1727880;82;21200;-70
2021/01/16 08:33:12;;;;;;;55.33;22.48;;;;;;;-4.73;86.43;101158.02;1721353;82;21144;-70
2021/01/16 08:35:46;;;;;;;55.98;22.40;;;;;;;-4.58;86.41;101154.87;1713622;82;21164;-70
2021/01/16 08:38:21;;;;;;;48.42;19.60;;;;;;;-4.44;86.43;101154.80;1729240;82;21192;-70
2021/01/16 08:41:03;;;;;;;29.42;12.82;;;;;;;-4.38;86.35;101162.37;1711081;82;21202;-70
2021/01/16 08:46:35;;;;;;;31.80;13.48;;;;;;;-4.12;86.32;101151.84;1810282;77;28310;-71
2021/01/16 08:49:10;;;;;;;32.05;14.18;;;;;;;-4.12;86.29;101149.23;1785899;79;21151;-71
2021/01/16 08:51:44;;;;;;;36.85;15.30;;;;;;;-4.12;86.24;101146.63;1784294;80;22091;-71
2021/01/16 08:54:19;;;;;;;28.15;10.98;;;;;;;-4.06;86.21;101148.99;1783323;80;21451;-71
2021/01/16 08:56:48;;;;;;;18.85;8.28;;;;;;;-4.07;86.17;101142.08;1785138;80;21136;-71
2021/01/16 08:59:32;;;;;;;16.62;7.28;;;;;;;-4.08;86.15;101149.03;1758766;80;21155;-71
2021/01/16 09:02:10;;;;;;;21.33;8.28;;;;;;;-4.07;86.10;101149.44;1773861;80;21629;-71
2021/01/16 09:07:22;;;;;;;43.95;17.70;;;;;;;-4.04;86.06;101135.44;1811683;77;28190;-71
2021/01/16 09:10:00;;;;;;;25.23;11.73;;;;;;;-4.05;86.03;101132.47;1758955;80;21167;-71
2021/01/16 09:12:39;;;;;;;20.32;8.23;;;;;;;-4.03;86.01;101128.03;1771692;77;22559;-71
2021/01/16 09:15:21;;;;;;;20.62;9.98;;;;;;;-3.98;86.00;101128.72;1696178;82;21702;-71
2021/01/16 09:18:13;;;;;;;24.05;9.23;;;;;;;-3.90;85.98;101129.23;1688615;84;21179;-71
2021/01/16 09:20:45;;;;;;;18.02;8.43;;;;;;;-3.82;85.99;101129.80;1697362;83;21206;-71
2021/01/16 09:23:23;;;;;;;35.08;12.73;;;;;;;-3.78;85.93;101131.82;1684835;82;21171;-71
2021/01/16 09:25:58;;;;;;;47.00;19.35;;;;;;;-3.74;85.91;101135.55;1691487;84;21414;-71
2021/01/16 09:28:51;;;;;;;45.43;15.78;;;;;;;-3.65;85.90;101144.29;1672943;84;21187;-71
2021/01/16 09:31:31;;;;;;;45.48;16.32;;;;;;;-3.55;85.88;101143.45;1654788;85;21258;-71
2021/01/16 09:34:14;;;;;;;33.10;11.83;;;;;;;-3.46;85.84;101137.88;1675603;84;21156;-71
2021/01/16 09:36:55;;;;;;;27.98;9.98;;;;;;;-3.43;85.79;101135.14;1673651;85;21591;-71
2021/01/16 09:39:27;;;;;;;32.90;11.57;;;;;;;-3.39;85.80;101126.28;1646045;85;22018;-71
2021/01/16 09:41:58;;;;;;;31.57;13.03;;;;;;;-3.43;85.71;101122.56;1674120;85;21183;-72
2021/01/16 09:44:46;;;;;;;35.63;13.60;;;;;;;-3.40;85.70;101123.73;1674151;84;21771;-71
2021/01/16 09:47:32;;;;;;;24.98;11.20;;;;;;;-3.41;85.65;101124.66;1631440;85;21591;-71
2021/01/16 09:50:13;;;;;;;22.05;10.90;;;;;;;-3.37;85.64;101119.69;1704845;82;21165;-71
2021/01/16 09:52:53;;;;;;;35.70;15.08;;;;;;;-3.32;85.61;101111.23;1702665;82;21245;-73
2021/01/16 09:55:25;;;;;;;26.35;10.85;;;;;;;-3.33;85.55;101110.83;1702504;83;21158;-73
2021/01/16 09:57:51;;;;;;;41.88;14.95;;;;;;;-3.29;85.51;101106.73;1693405;82;21215;-73
2021/01/16 10:00:33;;;;;;;32.78;14.30;;;;;;;-3.23;85.49;101105.16;1674301;84;21164;-73
2021/01/16 10:03:06;;;;;;;28.57;12.58;;;;;;;-3.22;85.45;101095.13;1666843;85;21190;-73
2021/01/16 10:05:38;;;;;;;28.45;12.95;;;;;;;-3.20;85.39;101091.16;1705029;82;21252;-73
2021/01/16 10:08:05;;;;;;;31.77;14.07;;;;;;;-3.16;85.35;101091.39;1715645;82;21143;-73
2021/01/16 10:10:45;;;;;;;32.95;13.62;;;;;;;-3.06;85.32;101092.69;1732202;82;21162;-74
2021/01/16 10:13:12;;;;;;;;;;;;;;;-2.98;85.30;101079.31;1720687;81;21134;-74
2021/01/16 10:15:50;;;;;;;53.63;20.95;;;;;;;-2.91;85.27;101060.71;1710487;83;20306;-73
2021/01/16 10:18:20;;;;;;;29.82;12.78;;;;;;;-2.85;85.24;101066.95;1715659;83;21284;-74
2021/01/16 10:21:11;;;;;;;38.30;12.70;;;;;;;-2.83;85.22;101061.67;1721703;83;21181;-74
2021/01/16 10:23:40;;;;;;;41.92;15.38;;;;;;;-2.84;85.18;101051.70;1721548;83;21173;-74
2021/01/16 10:26:10;;;;;;;34.75;14.75;;;;;;;-2.92;85.10;101043.35;1721032;83;21594;-74
2021/01/16 10:28:49;;;;;;;33.85;15.83;;;;;;;-2.92;85.07;101043.35;1717719;83;21149;-74
2021/01/16 10:31:24;;;;;;;27.15;11.20;;;;;;;-2.89;85.04;101028.89;1717589;83;21228;-74
2021/01/16 10:33:50;;;;;;;28.15;10.90;;;;;;;-2.79;85.02;101018.88;1708301;83;21177;-74
2021/01/16 10:36:19;;;;;;;40.70;15.43;;;;;;;-2.71;84.97;101016.77;1719772;83;21137;-73
2021/01/16 10:38:53;;;;;;;71.40;27.07;;;;;;;-2.62;84.96;101010.66;1698626;83;21193;-74
2021/01/16 10:41:21;;;;;;;81.95;29.27;;;;;;;-2.52;84.93;101009.30;1720539;83;21165;-72
2021/01/16 10:43:51;;;;;;;64.80;24.40;;;;;;;-2.48;84.87;101011.30;1721831;83;21273;-72
2021/01/16 10:46:25;;;;;;;45.08;15.00;;;;;;;-2.38;84.81;101009.09;1696476;83;21193;-71
2021/01/16 10:48:50;;;;;;;62.60;21.17;;;;;;;-2.32;84.79;101007.52;1727529;81;21185;-72
2021/01/16 10:51:16;;;;;;;48.65;16.25;;;;;;;-2.19;84.74;101008.61;1720757;83;21197;-72
2021/01/16 10:53:43;;;;;;;45.78;20.23;;;;;;;-2.10;84.70;101006.84;1675714;83;21606;-72
2021/01/16 10:56:18;;;;;;;35.80;16.10;;;;;;;-2.17;84.66;101002.84;1721786;83;21212;-72
2021/01/16 10:59:09;;;;;;;40.20;20.43;;;;;;;-2.13;84.62;101005.23;1822582;77;28140;-72
2021/01/16 11:01:49;;;;;;;27.87;14.13;;;;;;;-2.07;84.58;101002.31;1797920;78;21203;-72
2021/01/16 11:04:26;;;;;;;43.10;16.77;;;;;;;-2.13;84.50;100984.80;1812873;78;21171;-72
2021/01/16 11:06:58;;;;;;;33.53;12.65;;;;;;;-2.16;84.45;100983.19;1793612;78;21693;-72
2021/01/16 11:09:39;;;;;;;40.10;18.42;;;;;;;-2.22;84.36;100970.89;1797626;78;21134;-72
2021/01/16 11:12:08;;;;;;;46.88;21.75;;;;;;;-2.30;84.28;100969.11;1806090;78;21767;-72
2021/01/16 11:14:43;;;;;;;34.30;16.85;;;;;;;-2.36;84.19;100969.41;1818218;78;21167;-72
2021/01/16 11:17:11;;;;;;;20.00;8.83;;;;;;;-2.28;84.13;100967.25;1792311;78;21194;-72
2021/01/16 11:19:44;;;;;;;34.05;16.82;;;;;;;-2.24;84.03;100969.64;1795718;78;21634;-72
2021/01/16 11:22:11;;;;;;;72.62;27.98;;;;;;;-2.16;83.97;100961.44;1793792;78;21211;-71
2021/01/16 11:24:55;;;;;;;35.17;14.73;;;;;;;-2.10;83.92;100959.36;1796303;78;21119;-72
2021/01/16 11:27:26;;;;;;;65.28;24.18;;;;;;;-2.08;83.89;100951.46;1797265;78;21163;-72
2021/01/16 11:29:54;;;;;;;51.18;17.52;;;;;;;-2.17;83.83;100947.98;1803118;78;21128;-72
2021/01/16 11:32:22;;;;;;;81.20;22.22;;;;;;;-2.20;83.79;100955.52;1792898;79;21169;-72
2021/01/16 11:35:12;;;;;;;41.53;15.65;;;;;;;-2.25;83.75;100944.92;1787207;79;21148;-72
2021/01/16 11:37:57;;;;;;;78.02;26.40;;;;;;;-2.36;83.69;100945.91;1798881;78;21171;-71
2021/01/16 11:40:31;;;;;;;63.90;23.50;;;;;;;-2.39;83.65;100944.75;1819209;78;21179;-71